createdAt,value
2023-05-23T00:00:01.157Z,14.31
2023-05-23T00:02:29.389Z,14.63
2023-05-23T00:04:58.774Z,14.65
2023-05-23T00:07:26.697Z,14.93
2023-05-23T00:09:54.938Z,14.47
2023-05-23T00:12:23.192Z,14.70
2023-05-23T00:14:53.751Z,15.08
2023-05-23T00:17:22.461Z,14.73
2023-05-23T00:19:50.611Z,14.47
2023-05-23T00:22:18.501Z,14.21
2023-05-23T00:24:46.266Z,14.73
2023-05-23T00:27:14.368Z,13.94
2023-05-23T00:29:42.236Z,13.86
2023-05-23T00:32:10.176Z,14.04
2023-05-23T00:34:38.702Z,14.76
2023-05-23T00:37:06.469Z,14.22
2023-05-23T00:39:34.548Z,14.37
2023-05-23T00:42:04.579Z,14.03
2023-05-23T00:44:32.704Z,13.83
2023-05-23T00:47:00.482Z,14.56
2023-05-23T00:49:28.681Z,14.74
2023-05-23T00:51:56.588Z,14.68
2023-05-23T00:54:25.633Z,14.69
2023-05-23T00:56:54.950Z,14.42
2023-05-23T00:59:23.392Z,14.75
2023-05-23T01:01:51.269Z,14.95
2023-05-23T01:04:25.408Z,14.86
2023-05-23T01:06:54.643Z,14.39
2023-05-23T01:09:23.485Z,14.79
2023-05-23T01:11:59.471Z,14.08
2023-05-23T01:14:43.742Z,13.89
2023-05-23T01:17:14.062Z,14.27
2023-05-23T01:19:45.301Z,14.30
2023-05-23T01:22:16.269Z,14.30
2023-05-23T01:24:55.527Z,13.53
2023-05-23T01:27:40.849Z,13.19
2023-05-23T01:30:09.196Z,14.16
2023-05-23T01:32:37.127Z,13.24
2023-05-23T01:35:05.229Z,13.70
2023-05-23T01:37:33.560Z,13.62
2023-05-23T01:40:01.343Z,14.03
2023-05-23T01:42:29.401Z,13.99
2023-05-23T01:44:59.772Z,14.10
2023-05-23T01:47:27.595Z,14.18
2023-05-23T01:49:55.816Z,14.75
2023-05-23T01:52:24.023Z,13.89
2023-05-23T01:54:51.940Z,13.39
2023-05-23T01:57:20.052Z,13.36
2023-05-23T01:59:48.764Z,13.91
2023-05-23T02:02:16.797Z,14.13
2023-05-23T02:04:44.991Z,14.23
2023-05-23T02:07:12.837Z,13.74
2023-05-23T02:09:40.854Z,13.83
2023-05-23T02:12:10.353Z,13.84
2023-05-23T02:14:38.093Z,13.89
2023-05-23T02:17:05.864Z,13.86
2023-05-23T02:19:34.376Z,13.88
2023-05-23T02:22:02.706Z,14.13
2023-05-23T02:24:30.474Z,13.77
2023-05-23T02:26:58.274Z,13.86
2023-05-23T02:29:26.465Z,14.45
2023-05-23T02:31:54.293Z,14.49
2023-05-23T02:34:22.094Z,14.76
2023-05-23T02:36:50.350Z,14.68
2023-05-23T02:39:18.394Z,14.58
2023-05-23T02:41:46.472Z,14.17
2023-05-23T02:44:14.886Z,14.03
2023-05-23T02:46:42.872Z,13.86
2023-05-23T02:49:10.807Z,14.07
2023-05-23T02:51:39.136Z,14.19
2023-05-23T02:54:07.188Z,14.39
2023-05-23T02:56:35.635Z,13.73
2023-05-23T02:59:04.007Z,13.72
2023-05-23T03:01:31.951Z,13.82
2023-05-23T03:03:59.823Z,14.00
2023-05-23T03:06:28.272Z,13.72
2023-05-23T03:08:57.338Z,13.64
2023-05-23T03:11:25.619Z,13.12
2023-05-23T03:13:54.017Z,13.58
2023-05-23T03:16:22.605Z,13.76
2023-05-23T03:18:50.611Z,14.16
2023-05-23T03:21:18.901Z,13.87
2023-05-23T03:23:46.724Z,14.60
2023-05-23T03:26:14.550Z,14.13
2023-05-23T03:31:12.177Z,13.59
2023-05-23T03:33:40.647Z,13.47
2023-05-23T03:36:09.094Z,13.63
2023-05-23T03:38:36.929Z,13.87
2023-05-23T03:41:04.825Z,13.82
2023-05-23T03:43:33.201Z,14.04
2023-05-23T03:46:01.987Z,14.30
2023-05-23T03:48:31.584Z,14.11
2023-05-23T03:51:08.838Z,14.40
2023-05-23T03:53:37.705Z,14.87
2023-05-23T03:56:05.641Z,13.98
2023-05-23T03:58:34.453Z,13.87
2023-05-23T04:01:03.297Z,14.75
2023-05-23T04:03:35.044Z,14.37
2023-05-23T04:06:03.911Z,14.54
2023-05-23T04:08:34.324Z,15.05
2023-05-23T04:11:03.662Z,14.46
2023-05-23T04:13:32.039Z,14.47
2023-05-23T04:16:02.456Z,14.63
2023-05-23T04:18:31.040Z,14.63
2023-05-23T04:21:01.831Z,14.85
2023-05-23T04:23:30.682Z,15.06
2023-05-23T04:25:58.923Z,15.21
2023-05-23T04:28:29.641Z,15.35
2023-05-23T04:31:06.987Z,15.67
2023-05-23T04:33:56.683Z,16.15
2023-05-23T04:36:26.013Z,16.41
2023-05-23T04:38:56.047Z,17.02
2023-05-23T04:41:24.252Z,16.83
2023-05-23T04:43:54.782Z,17.72
2023-05-23T04:46:27.090Z,18.13
2023-05-23T04:49:00.523Z,18.24
2023-05-23T04:51:31.373Z,18.34
2023-05-23T04:54:01.791Z,18.87
2023-05-23T04:56:30.275Z,19.36
2023-05-23T04:58:58.612Z,19.41
2023-05-23T05:01:30.212Z,19.78
2023-05-23T05:04:29.704Z,19.63
2023-05-23T05:07:30.422Z,20.24
2023-05-23T05:10:21.502Z,20.60
2023-05-23T05:12:50.040Z,20.47
2023-05-23T05:15:37.945Z,20.53
2023-05-23T05:18:32.297Z,20.73
2023-05-23T05:42:25.935Z,22.07
2023-05-23T05:57:11.024Z,23.79
2023-05-23T06:09:56.339Z,25.09
2023-05-23T06:13:33.708Z,24.63
2023-05-23T06:25:53.037Z,25.38
2023-05-23T06:32:31.193Z,25.49
2023-05-23T06:43:16.408Z,27.34
2023-05-23T07:04:08.704Z,28.74
2023-05-23T07:10:58.550Z,27.91
2023-05-23T07:16:47.792Z,30.09
2023-05-23T07:19:20.516Z,29.30
2023-05-23T07:25:31.054Z,29.16
2023-05-23T07:28:43.662Z,29.17
2023-05-23T07:48:55.233Z,29.25
2023-05-23T07:54:33.625Z,31.27
2023-05-23T07:57:27.719Z,31.46
2023-05-23T08:00:09.545Z,31.21
2023-05-23T08:15:52.378Z,29.26
2023-05-23T08:18:38.763Z,30.75
2023-05-23T08:21:13.447Z,29.38
2023-05-23T08:23:41.569Z,29.54
2023-05-23T08:26:35.167Z,29.32
2023-05-23T08:29:08.376Z,29.08
2023-05-23T08:31:39.501Z,30.17
2023-05-23T08:34:11.920Z,29.86
2023-05-23T08:36:48.970Z,29.06
2023-05-23T08:39:20.168Z,29.33
2023-05-23T08:41:50.954Z,29.86
2023-05-23T08:44:20.016Z,30.27
2023-05-23T08:46:52.198Z,29.19
2023-05-23T08:49:24.805Z,28.96
2023-05-23T08:51:58.944Z,29.35
2023-05-23T08:54:27.506Z,29.99
2023-05-23T08:56:56.444Z,30.58
2023-05-23T08:59:26.886Z,30.45
2023-05-23T09:01:56.531Z,30.00
2023-05-23T09:04:27.419Z,28.85
2023-05-23T09:07:05.487Z,29.36
2023-05-23T09:10:08.397Z,29.15
2023-05-23T09:12:38.743Z,28.65
2023-05-23T09:15:12.540Z,29.37
2023-05-23T09:18:00.251Z,29.42
2023-05-23T09:23:34.666Z,29.66
2023-05-23T09:26:10.584Z,30.08
2023-05-23T09:28:43.384Z,29.59
2023-05-23T09:31:13.308Z,29.94
2023-05-23T09:33:50.777Z,29.73
2023-05-23T09:36:19.638Z,30.77
2023-05-23T09:38:49.562Z,30.09
2023-05-23T09:41:22.467Z,30.33
2023-05-23T09:43:55.508Z,29.80
2023-05-23T09:46:28.413Z,29.64
2023-05-23T09:48:57.160Z,28.82
2023-05-23T09:51:25.466Z,28.46
2023-05-23T09:53:53.686Z,27.69
2023-05-23T09:56:23.975Z,28.06
2023-05-23T09:58:52.237Z,28.67
2023-05-23T10:01:20.219Z,29.48
2023-05-23T10:03:57.234Z,29.90
2023-05-23T10:06:27.701Z,30.77
2023-05-23T10:09:08.436Z,29.50
2023-05-23T10:11:37.108Z,29.49
2023-05-23T10:14:07.356Z,30.06
2023-05-23T10:16:54.543Z,28.48
2023-05-23T10:19:44.041Z,28.46
2023-05-23T10:22:13.841Z,30.30
2023-05-23T10:24:50.360Z,30.71
2023-05-23T10:27:20.723Z,31.03
2023-05-23T10:29:50.652Z,31.30
2023-05-23T10:32:24.018Z,32.22
2023-05-23T10:34:56.483Z,30.86
2023-05-23T10:37:46.324Z,31.30
2023-05-23T10:40:39.947Z,30.45
2023-05-23T10:43:14.514Z,29.93
2023-05-23T10:45:44.033Z,28.76
2023-05-23T10:48:24.113Z,28.55
2023-05-23T10:51:06.237Z,28.18
2023-05-23T10:53:40.722Z,29.52
2023-05-23T10:56:09.699Z,30.49
2023-05-23T10:58:39.196Z,29.62
2023-05-23T11:01:08.046Z,29.31
2023-05-23T11:03:37.568Z,29.61
2023-05-23T11:06:06.073Z,29.12
2023-05-23T11:08:46.747Z,29.39
2023-05-23T11:11:17.464Z,29.30
2023-05-23T11:14:00.375Z,29.80
2023-05-23T11:16:33.623Z,30.15
2023-05-23T11:19:21.358Z,30.34
2023-05-23T11:21:56.218Z,30.59
2023-05-23T11:24:31.675Z,31.01
2023-05-23T11:27:04.367Z,30.27
2023-05-23T11:29:32.575Z,31.23
2023-05-23T11:32:01.158Z,30.96
2023-05-23T11:34:29.637Z,30.00
2023-05-23T11:37:03.711Z,30.13
2023-05-23T11:39:35.540Z,30.43
2023-05-23T11:42:04.801Z,30.86
2023-05-23T11:44:38.571Z,30.09
2023-05-23T11:47:21.719Z,30.17
2023-05-23T11:50:02.526Z,30.47
2023-05-23T11:52:47.207Z,30.29
2023-05-23T11:55:37.901Z,31.34
2023-05-23T11:58:25.473Z,30.54
2023-05-23T12:01:38.628Z,30.28
2023-05-23T12:04:53.110Z,30.04
2023-05-23T12:07:26.833Z,28.71
2023-05-23T12:09:59.741Z,28.89
2023-05-23T12:12:31.313Z,30.19
2023-05-23T12:15:03.546Z,29.16
2023-05-23T12:17:34.650Z,28.65
2023-05-23T12:20:08.317Z,28.48
2023-05-23T12:22:36.767Z,29.14
2023-05-23T12:25:12.660Z,29.78
2023-05-23T12:27:47.219Z,30.37
2023-05-23T12:30:31.730Z,29.30
2023-05-23T12:33:11.733Z,28.73
2023-05-23T12:35:48.218Z,28.69
2023-05-23T12:38:46.910Z,29.29
2023-05-23T12:41:23.631Z,29.64
2023-05-23T12:44:26.555Z,30.97
2023-05-23T12:46:58.067Z,30.38
2023-05-23T12:49:26.730Z,30.65
2023-05-23T12:52:00.350Z,30.56
2023-05-23T12:54:32.880Z,30.39
2023-05-23T12:57:04.093Z,29.95
2023-05-23T12:59:33.851Z,30.27
2023-05-23T13:02:03.221Z,30.71
2023-05-23T13:04:32.531Z,30.77
2023-05-23T13:07:01.825Z,30.88
2023-05-23T13:09:35.724Z,29.96
2023-05-23T13:14:59.923Z,29.80
2023-05-23T13:17:33.044Z,29.49
2023-05-23T13:20:22.105Z,29.80
2023-05-23T13:23:16.834Z,29.94
2023-05-23T13:26:06.421Z,29.94
2023-05-23T13:34:56.181Z,31.05
2023-05-23T13:40:29.956Z,30.22
2023-05-23T13:43:27.014Z,30.08
2023-05-23T13:46:14.113Z,29.76
2023-05-23T14:16:19.239Z,30.45
2023-05-23T14:18:47.706Z,30.62
2023-05-23T14:21:17.223Z,30.89
2023-05-23T14:23:47.851Z,30.60
2023-05-23T14:26:19.832Z,29.85
2023-05-23T14:28:52.886Z,29.71
2023-05-23T14:31:25.089Z,29.52
2023-05-23T14:33:54.132Z,29.39
2023-05-23T14:36:21.976Z,29.66
2023-05-23T14:38:54.054Z,29.33
2023-05-23T14:41:23.120Z,28.95
2023-05-23T14:43:51.916Z,28.15
2023-05-23T14:46:52.589Z,28.54
2023-05-23T14:49:37.892Z,28.59
2023-05-23T14:54:58.104Z,28.74
2023-05-23T14:57:25.926Z,29.08
2023-05-23T15:00:06.568Z,29.42
2023-05-23T15:02:35.240Z,29.16
2023-05-23T15:05:07.370Z,29.68
2023-05-23T15:07:39.707Z,29.26
2023-05-23T15:10:09.165Z,28.96
2023-05-23T15:12:49.172Z,29.73
2023-05-23T15:15:28.476Z,29.57
2023-05-23T15:17:57.611Z,29.45
2023-05-23T15:21:00.109Z,29.59
2023-05-23T15:26:15.274Z,28.78
2023-05-23T15:55:21.670Z,27.60
2023-05-23T15:57:52.654Z,27.92
2023-05-23T16:00:21.539Z,27.25
2023-05-23T16:02:55.036Z,27.31
2023-05-23T16:05:23.576Z,26.92
2023-05-23T16:07:53.690Z,26.76
2023-05-23T16:10:21.889Z,26.82
2023-05-23T16:12:51.953Z,26.53
2023-05-23T16:15:20.573Z,26.43
2023-05-23T16:17:52.129Z,26.35
2023-05-23T16:20:28.971Z,26.20
2023-05-23T16:36:56.936Z,25.31
2023-05-23T16:39:29.160Z,25.56
2023-05-23T16:42:00.343Z,25.28
2023-05-23T16:44:35.013Z,25.50
2023-05-23T16:47:03.562Z,25.65
2023-05-23T16:49:31.364Z,25.37
2023-05-23T16:51:59.817Z,25.31
2023-05-23T16:54:27.908Z,25.13
2023-05-23T16:56:56.009Z,25.10
2023-05-23T16:59:24.602Z,24.83
2023-05-23T17:01:57.094Z,25.11
2023-05-23T17:04:28.133Z,24.79
2023-05-23T17:07:01.953Z,24.37
2023-05-23T17:09:58.394Z,24.04
2023-05-23T17:12:53.267Z,24.13
2023-05-23T17:15:22.061Z,24.19
2023-05-23T17:17:52.862Z,24.64
2023-05-23T17:20:29.052Z,23.92
2023-05-23T17:23:01.570Z,22.80
2023-05-23T17:25:45.801Z,22.46
2023-05-23T17:28:20.473Z,21.43
2023-05-23T17:30:57.811Z,20.95
2023-05-23T17:33:31.061Z,20.89
2023-05-23T17:36:14.210Z,20.15
2023-05-23T17:38:51.172Z,20.14
2023-05-23T17:50:23.246Z,19.80
2023-05-23T17:53:08.863Z,19.50
2023-05-23T17:55:52.772Z,19.52
2023-05-23T17:58:28.392Z,19.75
2023-05-23T18:05:32.063Z,19.74
2023-05-23T18:08:17.791Z,19.67
2023-05-23T18:11:01.554Z,19.33
2023-05-23T18:14:12.371Z,19.35
2023-05-23T18:17:15.856Z,19.22
2023-05-23T18:19:57.550Z,18.64
2023-05-23T18:22:38.561Z,18.75
2023-05-23T18:26:03.914Z,18.39
2023-05-23T18:28:47.908Z,18.46
2023-05-23T18:31:23.263Z,18.40
2023-05-23T18:33:59.494Z,18.42
2023-05-23T18:36:28.008Z,18.36
2023-05-23T18:38:57.336Z,17.99
2023-05-23T18:41:28.269Z,17.97
2023-05-23T18:43:58.934Z,17.88
2023-05-23T18:46:28.181Z,17.91
2023-05-23T18:48:57.802Z,17.50
2023-05-23T18:51:26.749Z,17.67
2023-05-23T18:53:57.754Z,17.74
2023-05-23T18:56:25.571Z,17.64
2023-05-23T18:58:55.413Z,17.56
2023-05-23T19:01:29.484Z,17.84
2023-05-23T19:03:59.001Z,17.89
2023-05-23T19:06:30.033Z,17.63
2023-05-23T19:08:58.985Z,18.04
2023-05-23T19:11:31.363Z,18.24
2023-05-23T19:14:47.080Z,18.05
2023-05-23T19:17:47.529Z,17.57
2023-05-23T19:20:21.712Z,17.66
2023-05-23T19:23:11.253Z,17.74
2023-05-23T19:25:41.974Z,17.59
2023-05-23T19:28:12.477Z,17.91
2023-05-23T19:30:54.438Z,18.15
2023-05-23T19:33:23.125Z,18.35
2023-05-23T19:35:51.897Z,18.79
2023-05-23T19:38:21.431Z,18.34
2023-05-23T19:41:12.609Z,18.49
2023-05-23T19:44:22.852Z,18.48
2023-05-23T19:47:12.953Z,18.49
2023-05-23T19:49:45.073Z,18.70
2023-05-23T19:52:13.617Z,19.15
2023-05-23T19:54:53.322Z,19.16
2023-05-23T19:57:22.567Z,19.06
2023-05-23T19:59:52.219Z,18.94
2023-05-23T20:02:21.661Z,19.05
2023-05-23T20:04:51.664Z,19.31
2023-05-23T20:07:20.662Z,18.87
2023-05-23T20:09:54.522Z,18.79
2023-05-23T20:12:23.831Z,19.13
2023-05-23T20:15:16.028Z,18.81
2023-05-23T20:17:47.511Z,18.84
2023-05-23T20:20:18.403Z,18.90
2023-05-23T20:22:47.520Z,18.78
2023-05-23T20:25:17.801Z,18.71
2023-05-23T20:27:46.745Z,18.92
2023-05-23T20:30:14.924Z,19.05
2023-05-23T20:32:45.015Z,18.83
2023-05-23T20:35:15.868Z,18.71
2023-05-23T20:37:44.255Z,18.54
2023-05-23T20:40:13.185Z,18.91
2023-05-23T20:42:45.485Z,18.87
2023-05-23T20:45:15.582Z,18.77
2023-05-23T20:47:44.516Z,18.90
2023-05-23T20:50:15.557Z,18.50
2023-05-23T20:52:44.714Z,18.57
2023-05-23T20:55:14.574Z,18.38
2023-05-23T20:57:43.825Z,18.30
2023-05-23T21:00:16.601Z,18.33
2023-05-23T21:02:46.569Z,18.06
2023-05-23T21:05:36.946Z,17.82
2023-05-23T21:08:06.028Z,17.77
2023-05-23T21:10:35.809Z,18.02
2023-05-23T21:13:03.747Z,17.81
2023-05-23T21:15:31.830Z,17.83
2023-05-23T21:18:03.149Z,17.84
2023-05-23T21:20:52.703Z,18.03
2023-05-23T21:23:22.072Z,17.53
2023-05-23T21:25:57.192Z,17.39
2023-05-23T21:28:28.410Z,17.27
2023-05-23T21:31:11.310Z,17.17
2023-05-23T21:33:44.331Z,16.83
2023-05-23T21:36:33.505Z,16.57
2023-05-23T21:39:04.014Z,16.56
2023-05-23T21:41:56.220Z,16.62
2023-05-23T21:44:25.842Z,16.65
2023-05-23T21:46:54.384Z,16.45
2023-05-23T21:49:43.342Z,16.34
2023-05-23T21:52:16.842Z,16.63
2023-05-23T21:55:28.711Z,16.76
2023-05-23T21:57:57.596Z,16.66
2023-05-23T22:00:29.178Z,16.31
2023-05-23T22:03:08.014Z,15.95
2023-05-23T22:05:41.081Z,16.15
2023-05-23T22:08:13.334Z,16.01
2023-05-23T22:10:44.898Z,15.66
2023-05-23T22:17:16.423Z,15.67
2023-05-23T22:20:18.522Z,16.06
2023-05-23T22:23:20.034Z,15.85
2023-05-23T22:26:18.475Z,15.70
2023-05-23T22:29:29.744Z,15.61
2023-05-23T22:32:31.729Z,15.84
2023-05-23T22:35:44.102Z,15.73
2023-05-23T22:38:14.908Z,15.35
2023-05-23T22:41:03.836Z,14.98
2023-05-23T22:43:55.999Z,15.18
2023-05-23T22:46:44.967Z,15.54
2023-05-23T22:49:33.515Z,15.70
2023-05-23T22:52:45.047Z,15.19
2023-05-23T22:55:36.753Z,15.44
2023-05-23T22:58:38.770Z,15.79
2023-05-23T23:01:47.446Z,15.47
2023-05-23T23:04:31.164Z,15.27
2023-05-23T23:07:17.105Z,15.21
2023-05-23T23:10:21.864Z,15.04
2023-05-23T23:13:10.896Z,14.89
2023-05-23T23:16:09.552Z,15.04
2023-05-23T23:19:23.121Z,14.90
2023-05-23T23:22:26.940Z,14.85
2023-05-23T23:25:15.765Z,15.13
2023-05-23T23:28:27.479Z,15.07
2023-05-23T23:31:31.230Z,15.36
2023-05-23T23:34:20.728Z,15.19
2023-05-23T23:36:49.446Z,15.24
2023-05-23T23:40:00.342Z,15.51
2023-05-23T23:42:30.406Z,15.31
2023-05-23T23:45:19.184Z,15.24
2023-05-23T23:48:09.802Z,15.43
2023-05-23T23:50:58.789Z,15.75
2023-05-23T23:54:07.067Z,15.82
2023-05-23T23:57:15.839Z,15.92
